sensor_id;sensor_type;location;lat;lon;timestamp;pressure;altitude;pressure_sealevel;temperature;humidity
48115;BME280;33903;44.704;10.448;2024-02-21T00:00:28;101312.34;;;10.05;76.72
48115;BME280;33903;44.704;10.448;2024-02-21T00:03:33;101313.97;;;9.82;77.73
48115;BME280;33903;44.704;10.448;2024-02-21T00:06:38;101307.84;;;9.93;77.64
48115;BME280;33903;44.704;10.448;2024-02-21T00:09:44;101307.53;;;9.72;77.33
48115;BME280;33903;44.704;10.448;2024-02-21T00:12:49;101309.22;;;9.73;77.55
48115;BME280;33903;44.704;10.448;2024-02-21T00:15:54;101311.28;;;9.70;77.82
48115;BME280;33903;44.704;10.448;2024-02-21T00:18:58;101315.03;;;9.67;77.62
48115;BME280;33903;44.704;10.448;2024-02-21T00:22:03;101312.13;;;9.70;77.03
48115;BME280;33903;44.704;10.448;2024-02-21T00:25:08;101308.59;;;9.57;76.75
48115;BME280;33903;44.704;10.448;2024-02-21T00:28:13;101305.56;;;9.49;77.18
48115;BME280;33903;44.704;10.448;2024-02-21T00:31:18;101306.28;;;9.39;77.38
48115;BME280;33903;44.704;10.448;2024-02-21T00:34:23;101302.34;;;9.57;76.73
48115;BME280;33903;44.704;10.448;2024-02-21T00:37:27;101301.59;;;9.55;76.48
48115;BME280;33903;44.704;10.448;2024-02-21T00:40:35;101306.22;;;9.53;75.77
48115;BME280;33903;44.704;10.448;2024-02-21T00:43:40;101302.72;;;9.38;76.85
48115;BME280;33903;44.704;10.448;2024-02-21T00:46:46;101296.88;;;9.58;76.63
48115;BME280;33903;44.704;10.448;2024-02-21T00:49:51;101295.59;;;9.64;76.42
48115;BME280;33903;44.704;10.448;2024-02-21T00:52:55;101293.53;;;9.42;76.82
48115;BME280;33903;44.704;10.448;2024-02-21T00:56:00;101297.22;;;9.66;75.71
48115;BME280;33903;44.704;10.448;2024-02-21T00:59:05;101296.25;;;9.67;75.69
48115;BME280;33903;44.704;10.448;2024-02-21T01:02:10;101290.38;;;9.62;75.91
48115;BME280;33903;44.704;10.448;2024-02-21T01:05:15;101297.09;;;9.68;75.70
48115;BME280;33903;44.704;10.448;2024-02-21T01:08:19;101298.09;;;9.79;75.08
48115;BME280;33903;44.704;10.448;2024-02-21T01:11:24;101297.00;;;9.57;75.92
48115;BME280;33903;44.704;10.448;2024-02-21T01:14:28;101302.34;;;9.44;76.09
48115;BME280;33903;44.704;10.448;2024-02-21T01:17:33;101301.16;;;9.61;75.41
48115;BME280;33903;44.704;10.448;2024-02-21T01:20:37;101302.75;;;9.51;74.97
48115;BME280;33903;44.704;10.448;2024-02-21T01:23:42;101304.06;;;9.70;74.40
48115;BME280;33903;44.704;10.448;2024-02-21T01:26:46;101300.19;;;9.49;74.61
48115;BME280;33903;44.704;10.448;2024-02-21T01:29:51;101304.84;;;9.60;74.29
48115;BME280;33903;44.704;10.448;2024-02-21T01:32:55;101301.28;;;9.59;74.01
48115;BME280;33903;44.704;10.448;2024-02-21T01:36:04;101302.38;;;9.69;73.96
48115;BME280;33903;44.704;10.448;2024-02-21T01:39:12;101302.34;;;9.57;74.59
48115;BME280;33903;44.704;10.448;2024-02-21T01:42:17;101298.16;;;9.40;74.88
48115;BME280;33903;44.704;10.448;2024-02-21T01:45:21;101299.75;;;9.30;75.30
48115;BME280;33903;44.704;10.448;2024-02-21T01:48:27;101291.25;;;9.36;74.65
48115;BME280;33903;44.704;10.448;2024-02-21T01:51:32;101286.13;;;9.46;74.19
48115;BME280;33903;44.704;10.448;2024-02-21T01:54:37;101291.81;;;9.41;74.60
48115;BME280;33903;44.704;10.448;2024-02-21T01:57:42;101295.25;;;9.31;74.51
48115;BME280;33903;44.704;10.448;2024-02-21T02:00:51;101287.50;;;9.26;74.29
48115;BME280;33903;44.704;10.448;2024-02-21T02:03:57;101298.41;;;9.10;75.28
48115;BME280;33903;44.704;10.448;2024-02-21T02:07:05;101295.50;;;9.13;74.81
48115;BME280;33903;44.704;10.448;2024-02-21T02:10:11;101286.00;;;9.22;74.63
48115;BME280;33903;44.704;10.448;2024-02-21T02:13:15;101280.63;;;9.22;74.13
48115;BME280;33903;44.704;10.448;2024-02-21T02:16:20;101281.84;;;9.31;73.80
48115;BME280;33903;44.704;10.448;2024-02-21T02:19:25;101280.28;;;9.14;74.59
48115;BME280;33903;44.704;10.448;2024-02-21T02:22:31;101276.25;;;8.94;75.51
48115;BME280;33903;44.704;10.448;2024-02-21T02:25:38;101269.84;;;8.97;75.01
48115;BME280;33903;44.704;10.448;2024-02-21T02:28:43;101275.41;;;8.94;74.98
48115;BME280;33903;44.704;10.448;2024-02-21T02:31:49;101268.19;;;8.82;75.36
48115;BME280;33903;44.704;10.448;2024-02-21T02:34:53;101264.75;;;8.80;75.52
48115;BME280;33903;44.704;10.448;2024-02-21T02:37:58;101266.06;;;8.87;74.69
48115;BME280;33903;44.704;10.448;2024-02-21T02:41:03;101258.28;;;8.70;75.40
48115;BME280;33903;44.704;10.448;2024-02-21T02:44:07;101255.09;;;8.50;76.27
48115;BME280;33903;44.704;10.448;2024-02-21T02:47:12;101263.50;;;8.85;75.37
48115;BME280;33903;44.704;10.448;2024-02-21T02:50:16;101259.19;;;8.83;75.01
48115;BME280;33903;44.704;10.448;2024-02-21T02:53:21;101260.06;;;8.57;75.80
48115;BME280;33903;44.704;10.448;2024-02-21T02:56:26;101250.44;;;8.67;75.93
48115;BME280;33903;44.704;10.448;2024-02-21T02:59:30;101254.41;;;8.61;75.67
48115;BME280;33903;44.704;10.448;2024-02-21T03:02:35;101260.19;;;8.41;76.15
48115;BME280;33903;44.704;10.448;2024-02-21T03:05:39;101254.19;;;8.64;75.29
48115;BME280;33903;44.704;10.448;2024-02-21T03:08:43;101254.34;;;8.75;74.68
48115;BME280;33903;44.704;10.448;2024-02-21T03:11:48;101244.59;;;8.47;75.47
48115;BME280;33903;44.704;10.448;2024-02-21T03:14:53;101248.56;;;8.69;74.78
48115;BME280;33903;44.704;10.448;2024-02-21T03:17:58;101250.63;;;8.78;74.24
48115;BME280;33903;44.704;10.448;2024-02-21T03:21:03;101261.13;;;8.81;73.77
48115;BME280;33903;44.704;10.448;2024-02-21T03:24:07;101254.47;;;8.86;73.15
48115;BME280;33903;44.704;10.448;2024-02-21T03:27:12;101258.88;;;8.87;73.39
48115;BME280;33903;44.704;10.448;2024-02-21T03:30:16;101266.28;;;8.84;73.31
48115;BME280;33903;44.704;10.448;2024-02-21T03:33:21;101268.53;;;8.63;73.87
48115;BME280;33903;44.704;10.448;2024-02-21T03:36:27;101270.47;;;8.47;74.15
48115;BME280;33903;44.704;10.448;2024-02-21T03:39:31;101273.94;;;8.35;74.19
48115;BME280;33903;44.704;10.448;2024-02-21T03:42:37;101273.63;;;8.39;74.36
48115;BME280;33903;44.704;10.448;2024-02-21T03:45:42;101276.50;;;8.50;73.84
48115;BME280;33903;44.704;10.448;2024-02-21T03:48:46;101276.53;;;8.36;74.13
48115;BME280;33903;44.704;10.448;2024-02-21T03:51:51;101279.09;;;8.38;74.09
48115;BME280;33903;44.704;10.448;2024-02-21T03:54:55;101281.19;;;8.47;73.43
48115;BME280;33903;44.704;10.448;2024-02-21T03:58:00;101281.13;;;8.34;73.49
48115;BME280;33903;44.704;10.448;2024-02-21T04:01:04;101273.09;;;8.34;73.64
48115;BME280;33903;44.704;10.448;2024-02-21T04:04:10;101278.78;;;8.57;73.01
48115;BME280;33903;44.704;10.448;2024-02-21T04:07:14;101285.28;;;8.52;72.93
48115;BME280;33903;44.704;10.448;2024-02-21T04:10:19;101279.19;;;8.50;72.49
48115;BME280;33903;44.704;10.448;2024-02-21T04:13:23;101287.56;;;8.59;71.93
48115;BME280;33903;44.704;10.448;2024-02-21T04:16:28;101290.97;;;8.75;71.78
48115;BME280;33903;44.704;10.448;2024-02-21T04:19:32;101288.75;;;8.81;71.39
48115;BME280;33903;44.704;10.448;2024-02-21T04:22:38;101286.09;;;8.81;71.34
48115;BME280;33903;44.704;10.448;2024-02-21T04:25:42;101273.38;;;8.71;71.04
48115;BME280;33903;44.704;10.448;2024-02-21T04:28:47;101274.19;;;8.59;71.43
48115;BME280;33903;44.704;10.448;2024-02-21T04:31:51;101279.28;;;8.49;71.97
48115;BME280;33903;44.704;10.448;2024-02-21T04:34:56;101277.81;;;8.58;71.65
48115;BME280;33903;44.704;10.448;2024-02-21T04:38:00;101284.16;;;8.57;71.38
48115;BME280;33903;44.704;10.448;2024-02-21T04:41:05;101281.78;;;8.24;71.95
48115;BME280;33903;44.704;10.448;2024-02-21T04:44:11;101279.22;;;8.36;71.72
48115;BME280;33903;44.704;10.448;2024-02-21T04:47:15;101276.69;;;8.47;70.95
48115;BME280;33903;44.704;10.448;2024-02-21T04:50:20;101275.81;;;8.47;70.67
48115;BME280;33903;44.704;10.448;2024-02-21T04:53:24;101287.88;;;8.54;70.57
48115;BME280;33903;44.704;10.448;2024-02-21T04:56:29;101284.91;;;8.44;71.19
48115;BME280;33903;44.704;10.448;2024-02-21T04:59:33;101292.19;;;8.57;70.21
48115;BME280;33903;44.704;10.448;2024-02-21T05:02:39;101297.38;;;8.31;71.45
48115;BME280;33903;44.704;10.448;2024-02-21T05:05:44;101299.06;;;8.46;71.26
48115;BME280;33903;44.704;10.448;2024-02-21T05:08:49;101307.25;;;8.15;71.41
48115;BME280;33903;44.704;10.448;2024-02-21T05:11:54;101302.28;;;7.95;71.96
48115;BME280;33903;44.704;10.448;2024-02-21T05:14:58;101305.34;;;8.17;71.24
48115;BME280;33903;44.704;10.448;2024-02-21T05:18:03;101300.78;;;8.19;70.88
48115;BME280;33903;44.704;10.448;2024-02-21T05:21:08;101305.56;;;8.14;71.24
48115;BME280;33903;44.704;10.448;2024-02-21T05:24:13;101297.44;;;8.30;70.39
48115;BME280;33903;44.704;10.448;2024-02-21T05:27:17;101312.06;;;8.24;70.40
48115;BME280;33903;44.704;10.448;2024-02-21T05:30:22;101313.22;;;8.34;69.98
48115;BME280;33903;44.704;10.448;2024-02-21T05:33:27;101311.44;;;8.76;68.45
48115;BME280;33903;44.704;10.448;2024-02-21T05:36:31;101304.19;;;8.64;68.61
48115;BME280;33903;44.704;10.448;2024-02-21T05:39:35;101300.38;;;8.54;68.65
48115;BME280;33903;44.704;10.448;2024-02-21T05:42:42;101290.84;;;8.21;69.07
48115;BME280;33903;44.704;10.448;2024-02-21T05:45:47;101295.91;;;8.12;69.76
48115;BME280;33903;44.704;10.448;2024-02-21T05:48:52;101295.16;;;8.10;70.15
48115;BME280;33903;44.704;10.448;2024-02-21T05:51:57;101306.28;;;7.88;70.33
48115;BME280;33903;44.704;10.448;2024-02-21T05:55:01;101300.00;;;8.03;69.68
48115;BME280;33903;44.704;10.448;2024-02-21T05:58:06;101297.22;;;7.91;70.02
48115;BME280;33903;44.704;10.448;2024-02-21T06:01:11;101297.53;;;8.14;69.67
48115;BME280;33903;44.704;10.448;2024-02-21T06:04:16;101287.63;;;8.02;70.14
48115;BME280;33903;44.704;10.448;2024-02-21T06:07:20;101296.56;;;8.01;70.31
48115;BME280;33903;44.704;10.448;2024-02-21T06:10:25;101300.41;;;7.97;70.11
48115;BME280;33903;44.704;10.448;2024-02-21T06:13:29;101302.75;;;7.87;70.82
48115;BME280;33903;44.704;10.448;2024-02-21T06:16:34;101296.41;;;8.04;69.90
48115;BME280;33903;44.704;10.448;2024-02-21T06:19:42;101303.44;;;7.91;70.35
48115;BME280;33903;44.704;10.448;2024-02-21T06:22:47;101304.78;;;7.98;69.97
48115;BME280;33903;44.704;10.448;2024-02-21T06:25:52;101313.38;;;8.03;70.19
48115;BME280;33903;44.704;10.448;2024-02-21T06:28:57;101315.47;;;7.84;70.76
48115;BME280;33903;44.704;10.448;2024-02-21T06:32:02;101316.22;;;8.00;70.29
48115;BME280;33903;44.704;10.448;2024-02-21T06:35:07;101316.94;;;8.46;68.53
48115;BME280;33903;44.704;10.448;2024-02-21T06:38:12;101322.75;;;8.52;68.76
48115;BME280;33903;44.704;10.448;2024-02-21T06:41:18;101320.38;;;8.34;69.08
48115;BME280;33903;44.704;10.448;2024-02-21T06:44:23;101334.41;;;8.37;69.10
48115;BME280;33903;44.704;10.448;2024-02-21T06:47:28;101324.75;;;8.63;67.93
48115;BME280;33903;44.704;10.448;2024-02-21T06:50:32;101330.88;;;8.92;67.24
48115;BME280;33903;44.704;10.448;2024-02-21T06:53:36;101334.03;;;9.11;66.85
48115;BME280;33903;44.704;10.448;2024-02-21T06:56:41;101336.81;;;9.36;66.14
48115;BME280;33903;44.704;10.448;2024-02-21T06:59:46;101338.97;;;9.44;65.16
48115;BME280;33903;44.704;10.448;2024-02-21T07:02:51;101337.41;;;9.14;66.37
48115;BME280;33903;44.704;10.448;2024-02-21T07:05:55;101344.56;;;9.53;64.85
48115;BME280;33903;44.704;10.448;2024-02-21T07:09:00;101341.34;;;9.48;65.20
48115;BME280;33903;44.704;10.448;2024-02-21T07:12:04;101357.69;;;9.31;65.68
48115;BME280;33903;44.704;10.448;2024-02-21T07:15:09;101354.53;;;9.51;64.89
48115;BME280;33903;44.704;10.448;2024-02-21T07:18:14;101350.09;;;9.77;64.45
48115;BME280;33903;44.704;10.448;2024-02-21T07:21:19;101352.38;;;9.96;63.65
48115;BME280;33903;44.704;10.448;2024-02-21T07:24:23;101354.34;;;10.44;61.74
48115;BME280;33903;44.704;10.448;2024-02-21T07:27:28;101361.81;;;11.00;60.04
48115;BME280;33903;44.704;10.448;2024-02-21T07:30:35;101347.13;;;11.17;58.87
48115;BME280;33903;44.704;10.448;2024-02-21T07:33:40;101350.72;;;11.29;58.61
48115;BME280;33903;44.704;10.448;2024-02-21T07:36:44;101354.50;;;11.26;58.54
48115;BME280;33903;44.704;10.448;2024-02-21T07:39:49;101350.78;;;11.40;58.48
48115;BME280;33903;44.704;10.448;2024-02-21T07:42:53;101358.44;;;11.57;58.11
48115;BME280;33903;44.704;10.448;2024-02-21T07:45:58;101360.25;;;11.80;57.48
48115;BME280;33903;44.704;10.448;2024-02-21T07:49:02;101359.59;;;12.11;56.47
48115;BME280;33903;44.704;10.448;2024-02-21T07:52:07;101359.59;;;12.67;55.36
48115;BME280;33903;44.704;10.448;2024-02-21T07:55:12;101364.72;;;13.14;53.67
48115;BME280;33903;44.704;10.448;2024-02-21T07:58:17;101368.94;;;13.91;51.14
48115;BME280;33903;44.704;10.448;2024-02-21T08:01:22;101364.03;;;14.77;49.21
48115;BME280;33903;44.704;10.448;2024-02-21T08:04:26;101359.38;;;15.67;45.96
48115;BME280;33903;44.704;10.448;2024-02-21T08:07:30;101359.72;;;17.03;42.02
48115;BME280;33903;44.704;10.448;2024-02-21T08:10:35;101361.94;;;17.88;38.75
48115;BME280;33903;44.704;10.448;2024-02-21T08:13:40;101367.66;;;19.87;36.54
48115;BME280;33903;44.704;10.448;2024-02-21T08:16:44;101365.22;;;21.43;34.53
48115;BME280;33903;44.704;10.448;2024-02-21T08:19:49;101367.91;;;22.33;32.37
48115;BME280;33903;44.704;10.448;2024-02-21T08:22:54;101369.44;;;22.50;31.63
48115;BME280;33903;44.704;10.448;2024-02-21T08:25:58;101384.69;;;21.93;32.55
48115;BME280;33903;44.704;10.448;2024-02-21T08:29:03;101387.78;;;23.23;30.84
48115;BME280;33903;44.704;10.448;2024-02-21T08:32:07;101384.75;;;23.89;30.25
48115;BME280;33903;44.704;10.448;2024-02-21T08:35:12;101390.25;;;24.11;29.95
48115;BME280;33903;44.704;10.448;2024-02-21T08:38:17;101384.59;;;25.02;28.77
48115;BME280;33903;44.704;10.448;2024-02-21T08:41:23;101374.63;;;25.42;28.53
48115;BME280;33903;44.704;10.448;2024-02-21T08:44:28;101377.50;;;26.07;27.23
48115;BME280;33903;44.704;10.448;2024-02-21T08:47:33;101377.06;;;26.89;25.99
48115;BME280;33903;44.704;10.448;2024-02-21T08:50:39;101366.22;;;26.94;26.05
48115;BME280;33903;44.704;10.448;2024-02-21T08:53:45;101368.28;;;27.11;25.60
48115;BME280;33903;44.704;10.448;2024-02-21T08:56:50;101370.25;;;27.87;24.90
48115;BME280;33903;44.704;10.448;2024-02-21T08:59:54;101365.00;;;27.79;25.35
48115;BME280;33903;44.704;10.448;2024-02-21T09:02:59;101357.81;;;28.33;24.56
48115;BME280;33903;44.704;10.448;2024-02-21T09:06:04;101364.72;;;27.55;24.93
48115;BME280;33903;44.704;10.448;2024-02-21T09:09:09;101362.13;;;27.60;25.42
48115;BME280;33903;44.704;10.448;2024-02-21T09:12:14;101362.03;;;27.42;26.12
48115;BME280;33903;44.704;10.448;2024-02-21T09:15:19;101361.19;;;27.80;25.30
48115;BME280;33903;44.704;10.448;2024-02-21T09:18:24;101355.41;;;28.37;25.21
48115;BME280;33903;44.704;10.448;2024-02-21T09:21:30;101352.00;;;28.17;25.37
48115;BME280;33903;44.704;10.448;2024-02-21T09:24:34;101351.19;;;28.10;25.63
48115;BME280;33903;44.704;10.448;2024-02-21T09:27:39;101359.09;;;28.06;26.11
48115;BME280;33903;44.704;10.448;2024-02-21T09:30:44;101355.31;;;28.01;26.31
48115;BME280;33903;44.704;10.448;2024-02-21T09:33:48;101344.56;;;27.04;26.99
48115;BME280;33903;44.704;10.448;2024-02-21T09:36:53;101344.94;;;26.43;27.61
48115;BME280;33903;44.704;10.448;2024-02-21T09:39:58;101338.31;;;25.59;29.25
48115;BME280;33903;44.704;10.448;2024-02-21T09:43:03;101338.34;;;25.05;29.37
48115;BME280;33903;44.704;10.448;2024-02-21T09:46:19;101339.50;;;24.83;29.71
48115;BME280;33903;44.704;10.448;2024-02-21T09:52:34;101331.75;;;23.11;32.74
48115;BME280;33903;44.704;10.448;2024-02-21T09:55:39;101336.69;;;22.42;33.94
48115;BME280;33903;44.704;10.448;2024-02-21T09:58:47;101330.59;;;21.80;35.11
48115;BME280;33903;44.704;10.448;2024-02-21T10:01:51;101321.06;;;20.61;37.98
48115;BME280;33903;44.704;10.448;2024-02-21T10:04:56;101320.13;;;20.06;39.53
48115;BME280;33903;44.704;10.448;2024-02-21T10:08:00;101319.47;;;19.80;40.66
48115;BME280;33903;44.704;10.448;2024-02-21T10:11:05;101322.06;;;19.23;41.60
48115;BME280;33903;44.704;10.448;2024-02-21T10:14:13;101326.97;;;19.04;42.88
48115;BME280;33903;44.704;10.448;2024-02-21T10:17:19;101329.41;;;18.73;43.30
48115;BME280;33903;44.704;10.448;2024-02-21T10:20:24;101328.81;;;18.02;45.23
48115;BME280;33903;44.704;10.448;2024-02-21T10:23:29;101321.66;;;18.01;45.85
48115;BME280;33903;44.704;10.448;2024-02-21T10:26:44;101321.84;;;17.82;46.43
48115;BME280;33903;44.704;10.448;2024-02-21T10:29:50;101329.72;;;17.67;47.25
48115;BME280;33903;44.704;10.448;2024-02-21T10:32:56;101315.19;;;17.59;47.66
48115;BME280;33903;44.704;10.448;2024-02-21T10:36:08;101319.19;;;17.19;48.26
48115;BME280;33903;44.704;10.448;2024-02-21T10:39:14;101312.44;;;17.41;48.40
48115;BME280;33903;44.704;10.448;2024-02-21T10:42:21;101307.88;;;17.41;48.89
48115;BME280;33903;44.704;10.448;2024-02-21T10:45:34;101317.03;;;17.76;48.60
48115;BME280;33903;44.704;10.448;2024-02-21T10:48:44;101313.41;;;17.67;48.78
48115;BME280;33903;44.704;10.448;2024-02-21T10:51:49;101315.41;;;17.83;48.75
48115;BME280;33903;44.704;10.448;2024-02-21T10:55:09;101315.47;;;17.91;48.96
48115;BME280;33903;44.704;10.448;2024-02-21T10:58:14;101314.97;;;17.95;48.27
48115;BME280;33903;44.704;10.448;2024-02-21T11:01:19;101310.84;;;17.66;49.06
48115;BME280;33903;44.704;10.448;2024-02-21T11:04:25;101304.88;;;17.44;49.66
48115;BME280;33903;44.704;10.448;2024-02-21T11:07:31;101313.19;;;17.61;50.30
48115;BME280;33903;44.704;10.448;2024-02-21T11:10:36;101304.16;;;17.25;51.45
48115;BME280;33903;44.704;10.448;2024-02-21T11:13:41;101289.13;;;17.30;52.14
48115;BME280;33903;44.704;10.448;2024-02-21T11:16:47;101281.38;;;17.18;52.26
48115;BME280;33903;44.704;10.448;2024-02-21T11:19:52;101280.81;;;17.32;52.73
48115;BME280;33903;44.704;10.448;2024-02-21T11:22:56;101272.28;;;17.27;52.80
48115;BME280;33903;44.704;10.448;2024-02-21T11:26:09;101258.91;;;17.25;52.50
48115;BME280;33903;44.704;10.448;2024-02-21T11:29:23;101255.06;;;17.36;52.78
48115;BME280;33903;44.704;10.448;2024-02-21T11:32:30;101252.81;;;17.49;51.75
48115;BME280;33903;44.704;10.448;2024-02-21T11:35:36;101245.09;;;17.54;52.13
48115;BME280;33903;44.704;10.448;2024-02-21T11:38:40;101242.06;;;17.57;51.59
48115;BME280;33903;44.704;10.448;2024-02-21T11:41:45;101232.91;;;17.40;52.53
48115;BME280;33903;44.704;10.448;2024-02-21T11:44:49;101230.22;;;17.05;53.45
48115;BME280;33903;44.704;10.448;2024-02-21T11:47:54;101219.97;;;16.99;54.43
48115;BME280;33903;44.704;10.448;2024-02-21T11:50:58;101219.88;;;17.26;53.62
48115;BME280;33903;44.704;10.448;2024-02-21T11:54:05;101219.44;;;17.13;54.17
48115;BME280;33903;44.704;10.448;2024-02-21T11:57:10;101212.59;;;17.09;54.65
48115;BME280;33903;44.704;10.448;2024-02-21T12:00:19;101197.88;;;17.12;54.75
48115;BME280;33903;44.704;10.448;2024-02-21T12:03:28;101192.44;;;16.94;55.68
48115;BME280;33903;44.704;10.448;2024-02-21T12:06:34;101193.63;;;17.09;55.24
48115;BME280;33903;44.704;10.448;2024-02-21T12:09:41;101183.25;;;17.05;55.34
48115;BME280;33903;44.704;10.448;2024-02-21T12:12:46;101185.25;;;17.03;55.81
48115;BME280;33903;44.704;10.448;2024-02-21T12:15:50;101191.69;;;17.02;55.88
48115;BME280;33903;44.704;10.448;2024-02-21T12:18:54;101183.00;;;17.16;55.54
48115;BME280;33903;44.704;10.448;2024-02-21T12:21:59;101183.84;;;17.16;56.20
48115;BME280;33903;44.704;10.448;2024-02-21T12:25:15;101176.16;;;17.29;56.25
48115;BME280;33903;44.704;10.448;2024-02-21T12:28:22;101172.47;;;17.38;55.61
48115;BME280;33903;44.704;10.448;2024-02-21T12:31:26;101173.50;;;17.37;55.31
48115;BME280;33903;44.704;10.448;2024-02-21T12:34:32;101170.09;;;17.35;55.54
48115;BME280;33903;44.704;10.448;2024-02-21T12:37:37;101164.31;;;17.30;55.36
48115;BME280;33903;44.704;10.448;2024-02-21T12:40:42;101158.88;;;17.30;55.62
48115;BME280;33903;44.704;10.448;2024-02-21T12:43:47;101151.78;;;17.37;55.29
48115;BME280;33903;44.704;10.448;2024-02-21T12:46:51;101149.88;;;17.30;55.31
48115;BME280;33903;44.704;10.448;2024-02-21T12:49:59;101144.88;;;17.43;55.95
48115;BME280;33903;44.704;10.448;2024-02-21T12:53:04;101140.84;;;17.47;55.64
48115;BME280;33903;44.704;10.448;2024-02-21T12:56:08;101142.59;;;17.56;55.35
48115;BME280;33903;44.704;10.448;2024-02-21T12:59:13;101123.34;;;17.67;55.03
48115;BME280;33903;44.704;10.448;2024-02-21T13:02:18;101115.91;;;17.51;54.95
48115;BME280;33903;44.704;10.448;2024-02-21T13:05:24;101114.97;;;17.61;55.13
48115;BME280;33903;44.704;10.448;2024-02-21T13:08:29;101113.19;;;17.51;54.31
48115;BME280;33903;44.704;10.448;2024-02-21T13:11:36;101096.63;;;17.54;54.32
48115;BME280;33903;44.704;10.448;2024-02-21T13:14:42;101095.66;;;17.64;54.31
48115;BME280;33903;44.704;10.448;2024-02-21T13:17:48;101085.16;;;17.69;53.97
48115;BME280;33903;44.704;10.448;2024-02-21T13:20:52;101083.16;;;17.79;53.68
48115;BME280;33903;44.704;10.448;2024-02-21T13:23:57;101082.75;;;17.66;55.02
48115;BME280;33903;44.704;10.448;2024-02-21T13:27:03;101065.66;;;17.73;55.59
48115;BME280;33903;44.704;10.448;2024-02-21T13:30:08;101065.47;;;17.67;56.04
48115;BME280;33903;44.704;10.448;2024-02-21T13:33:14;101069.00;;;17.59;53.75
48115;BME280;33903;44.704;10.448;2024-02-21T13:36:18;101056.19;;;17.77;54.58
48115;BME280;33903;44.704;10.448;2024-02-21T13:39:23;101057.69;;;17.72;55.40
48115;BME280;33903;44.704;10.448;2024-02-21T13:42:28;101050.34;;;17.64;55.77
48115;BME280;33903;44.704;10.448;2024-02-21T13:45:33;101042.97;;;17.82;55.64
48115;BME280;33903;44.704;10.448;2024-02-21T13:48:39;101040.91;;;17.76;54.37
48115;BME280;33903;44.704;10.448;2024-02-21T13:51:43;101035.09;;;17.71;54.02
48115;BME280;33903;44.704;10.448;2024-02-21T13:54:49;101035.97;;;17.72;54.29
48115;BME280;33903;44.704;10.448;2024-02-21T13:57:54;101027.44;;;17.67;55.36
48115;BME280;33903;44.704;10.448;2024-02-21T14:00:58;101031.84;;;17.60;55.28
48115;BME280;33903;44.704;10.448;2024-02-21T14:04:03;101020.47;;;17.64;54.69
48115;BME280;33903;44.704;10.448;2024-02-21T14:07:08;101017.94;;;17.37;55.79
48115;BME280;33903;44.704;10.448;2024-02-21T14:10:13;101016.59;;;17.41;56.32
48115;BME280;33903;44.704;10.448;2024-02-21T14:13:18;101013.88;;;17.41;56.04
48115;BME280;33903;44.704;10.448;2024-02-21T14:16:23;101006.56;;;17.33;56.46
48115;BME280;33903;44.704;10.448;2024-02-21T14:19:27;101004.94;;;17.48;55.86
48115;BME280;33903;44.704;10.448;2024-02-21T14:22:32;101002.66;;;17.62;55.20
48115;BME280;33903;44.704;10.448;2024-02-21T14:25:37;100996.78;;;17.40;55.81
48115;BME280;33903;44.704;10.448;2024-02-21T14:28:43;100992.91;;;17.51;55.37
48115;BME280;33903;44.704;10.448;2024-02-21T14:31:48;100993.91;;;17.42;56.12
48115;BME280;33903;44.704;10.448;2024-02-21T14:34:53;100984.75;;;17.51;56.24
48115;BME280;33903;44.704;10.448;2024-02-21T14:37:57;100986.03;;;17.31;58.36
48115;BME280;33903;44.704;10.448;2024-02-21T14:41:02;100978.03;;;17.55;57.86
48115;BME280;33903;44.704;10.448;2024-02-21T14:44:07;100983.53;;;17.45;58.07
48115;BME280;33903;44.704;10.448;2024-02-21T14:47:14;100973.69;;;17.36;57.26
48115;BME280;33903;44.704;10.448;2024-02-21T14:50:18;100965.38;;;17.38;57.31
48115;BME280;33903;44.704;10.448;2024-02-21T14:53:24;100961.97;;;17.36;57.65
48115;BME280;33903;44.704;10.448;2024-02-21T14:56:29;100962.28;;;17.25;57.39
48115;BME280;33903;44.704;10.448;2024-02-21T14:59:35;100956.78;;;17.17;57.11
48115;BME280;33903;44.704;10.448;2024-02-21T15:02:39;100954.81;;;17.27;57.36
48115;BME280;33903;44.704;10.448;2024-02-21T15:05:45;100954.97;;;17.25;57.88
48115;BME280;33903;44.704;10.448;2024-02-21T15:08:50;100945.44;;;17.13;57.91
48115;BME280;33903;44.704;10.448;2024-02-21T15:11:56;100934.78;;;17.20;57.52
48115;BME280;33903;44.704;10.448;2024-02-21T15:15:01;100930.25;;;17.36;57.24
48115;BME280;33903;44.704;10.448;2024-02-21T15:18:06;100928.34;;;17.29;57.31
48115;BME280;33903;44.704;10.448;2024-02-21T15:21:10;100932.28;;;17.34;56.85
48115;BME280;33903;44.704;10.448;2024-02-21T15:24:19;100934.00;;;17.35;56.70
48115;BME280;33903;44.704;10.448;2024-02-21T15:27:24;100918.50;;;17.20;57.76
48115;BME280;33903;44.704;10.448;2024-02-21T15:30:31;100914.09;;;17.27;57.54
48115;BME280;33903;44.704;10.448;2024-02-21T15:33:36;100914.28;;;17.25;58.02
48115;BME280;33903;44.704;10.448;2024-02-21T15:36:41;100918.50;;;17.20;57.53
48115;BME280;33903;44.704;10.448;2024-02-21T15:39:46;100911.22;;;17.28;57.37
48115;BME280;33903;44.704;10.448;2024-02-21T15:42:52;100908.19;;;17.31;56.15
48115;BME280;33903;44.704;10.448;2024-02-21T15:45:58;100911.38;;;16.85;57.52
48115;BME280;33903;44.704;10.448;2024-02-21T15:49:03;100905.19;;;17.01;57.24
48115;BME280;33903;44.704;10.448;2024-02-21T15:52:08;100911.81;;;17.06;57.13
48115;BME280;33903;44.704;10.448;2024-02-21T15:55:14;100909.63;;;17.10;57.29
48115;BME280;33903;44.704;10.448;2024-02-21T15:58:19;100909.50;;;17.19;57.16
48115;BME280;33903;44.704;10.448;2024-02-21T16:01:24;100907.28;;;17.15;57.78
48115;BME280;33903;44.704;10.448;2024-02-21T16:04:29;100902.81;;;16.98;57.98